Time;durP1;ratioP1;P1;durP2;ratioP2;P2;SDS_P1;SDS_P2;PMS_P1;PMS_P2;Temp;Humidity;BMP_temperature;BMP_pressure;BME280_temperature;BME280_humidity;BME280_pressure;Samples;Min_cycle;Max_cycle;Signal;HPM_P1;HPM_P2
2022/12/13 00:01:09;;;;;;;0.88;0.60;;;;;;;5.81;100.00;99195.91;5070250;28;20152;-70
2022/12/13 00:03:34;;;;;;;0.63;0.57;;;;;;;5.76;100.00;99219.59;5070165;28;20028;-69
2022/12/13 00:06:04;;;;;;;0.80;0.57;;;;;;;5.64;100.00;99212.28;5070184;28;20694;-70
2022/12/13 00:08:29;;;;;;;0.80;0.50;;;;;;;5.15;100.00;99120.03;5070620;28;20066;-69
2022/12/13 00:11:03;;;;;;;0.40;0.30;;;;;;;5.36;100.00;99158.25;5070551;28;20469;-70
2022/12/13 00:13:29;;;;;;;0.80;0.50;;;;;;;5.83;100.00;99236.22;5043570;28;20036;-70
2022/12/13 00:16:03;;;;;;;1.10;0.50;;;;;;;5.40;100.00;99148.06;5070001;28;20029;-69
2022/12/13 00:18:29;;;;;;;0.63;0.47;;;;;;;5.69;100.00;99255.84;5069826;28;20032;-69
2022/12/13 00:20:54;;;;;;;0.40;0.40;;;;;;;5.73;100.00;99242.31;5052425;28;20127;-69
2022/12/13 00:23:20;;;;;;;0.70;0.52;;;;;;;5.45;100.00;99179.03;5070352;28;20032;-70
2022/12/13 00:25:46;;;;;;;0.47;0.47;;;;;;;5.47;100.00;99162.19;5070624;28;20460;-69
2022/12/13 00:28:12;;;;;;;0.50;0.38;;;;;;;5.68;100.00;99269.34;5069038;28;20477;-69
2022/12/13 00:30:38;;;;;;;0.93;0.40;;;;;;;5.59;100.00;99244.28;5070278;28;20107;-70
2022/12/13 00:33:05;;;;;;;0.60;0.30;;;;;;;5.61;100.00;99172.00;5070591;28;20028;-69
2022/12/13 00:35:31;;;;;;;0.50;0.30;;;;;;;5.34;100.00;99205.31;5070539;28;20036;-70
2022/12/13 00:37:59;;;;;;;0.20;0.20;;;;;;;5.30;100.00;99171.81;5070130;28;20036;-70
2022/12/13 00:40:27;;;;;;;0.20;0.20;;;;;;;5.41;100.00;99214.44;5070227;28;20115;-70
2022/12/13 00:42:53;;;;;;;0.45;0.20;;;;;;;5.50;100.00;99255.41;5070319;28;20051;-70
2022/12/13 00:45:18;;;;;;;0.30;0.30;;;;;;;5.42;100.00;99226.16;5070429;28;20054;-71
2022/12/13 00:47:45;;;;;;;0.28;0.20;;;;;;;5.37;100.00;99255.66;5069665;28;20517;-70
2022/12/13 00:50:10;;;;;;;0.20;0.20;;;;;;;5.70;100.00;99255.84;5070261;28;20025;-71
2022/12/13 00:52:35;;;;;;;0.32;0.30;;;;;;;5.60;100.00;99274.53;5070493;28;20283;-70
2022/12/13 00:55:01;;;;;;;0.20;0.20;;;;;;;5.36;100.00;99284.22;5052972;28;20028;-71
2022/12/13 00:57:26;;;;;;;0.28;0.25;;;;;;;5.72;100.00;99286.91;5066855;28;20036;-70
2022/12/13 00:59:52;;;;;;;0.50;0.32;;;;;;;5.38;100.00;99290.06;5052354;28;20029;-71
2022/12/13 01:02:17;;;;;;;0.30;0.30;;;;;;;4.56;100.00;99177.38;5055940;28;20056;-71
2022/12/13 01:04:43;;;;;;;0.30;0.30;;;;;;;5.31;100.00;99289.34;5049867;28;20460;-70
2022/12/13 01:07:08;;;;;;;0.40;0.40;;;;;;;5.08;100.00;99287.25;5067903;28;20028;-70
2022/12/13 01:09:33;;;;;;;0.70;0.55;;;;;;;5.13;100.00;99267.84;5070050;28;20032;-69
2022/12/13 01:12:01;;;;;;;0.55;0.40;;;;;;;5.37;100.00;99303.53;5069061;28;20032;-69
2022/12/13 01:14:27;;;;;;;1.05;0.70;;;;;;;5.32;100.00;99300.25;5068668;28;20059;-70
2022/12/13 01:16:55;;;;;;;0.82;0.52;;;;;;;5.17;100.00;99276.16;5068614;28;20025;-70
2022/12/13 01:19:22;;;;;;;1.80;0.80;;;;;;;5.23;100.00;99304.59;5069883;28;20047;-70
2022/12/13 01:21:48;;;;;;;2.15;0.85;;;;;;;5.34;100.00;99323.75;5069800;28;20029;-70
2022/12/13 01:24:14;;;;;;;1.65;1.30;;;;;;;5.07;100.00;99289.78;5056065;28;20037;-69
2022/12/13 01:26:40;;;;;;;2.20;1.58;;;;;;;4.76;100.00;99245.81;5053635;28;20024;-71
2022/12/13 01:29:05;;;;;;;2.08;1.60;;;;;;;5.01;100.00;99303.31;5053692;28;20423;-71
2022/12/13 01:31:32;;;;;;;1.92;1.48;;;;;;;4.37;100.00;99225.50;5052084;28;20480;-70
2022/12/13 01:33:58;;;;;;;2.50;1.80;;;;;;;4.60;100.00;99217.56;5053042;28;20043;-71
2022/12/13 01:36:23;;;;;;;2.78;2.00;;;;;;;4.40;100.00;99204.47;5053708;28;20116;-70
2022/12/13 01:38:49;;;;;;;3.22;2.20;;;;;;;4.59;100.00;99273.81;5053557;28;20029;-71
2022/12/13 01:41:18;;;;;;;2.13;1.73;;;;;;;4.71;100.00;99301.31;5068990;28;20056;-71
2022/12/13 01:43:43;;;;;;;2.33;1.92;;;;;;;4.99;100.00;99316.78;5053175;28;20063;-70
2022/12/13 01:46:10;;;;;;;2.63;2.10;;;;;;;4.67;100.00;99254.38;5068823;28;20080;-69
2022/12/13 01:48:43;;;;;;;2.45;1.90;;;;;;;5.03;100.00;99339.38;5053380;28;20127;-69
2022/12/13 01:51:13;;;;;;;2.67;2.10;;;;;;;4.07;100.00;99247.72;5053453;28;20025;-70
2022/12/13 01:53:41;;;;;;;3.13;2.00;;;;;;;4.69;100.00;99294.63;5052242;28;20403;-70
2022/12/13 01:56:18;;;;;;;2.90;2.38;;;;;;;4.19;100.00;99252.59;5053047;28;20119;-70
2022/12/13 01:58:46;;;;;;;2.83;2.30;;;;;;;4.85;100.00;99332.09;5053398;28;20070;-72
2022/12/13 02:01:11;;;;;;;2.50;2.22;;;;;;;4.91;100.00;99334.53;5052851;28;20060;-70
2022/12/13 02:03:37;;;;;;;2.63;2.13;;;;;;;4.75;100.00;99327.25;5053064;28;20033;-70
2022/12/13 02:06:09;;;;;;;2.47;2.00;;;;;;;4.84;100.00;99358.16;5052714;28;20060;-71
2022/12/13 02:08:37;;;;;;;2.78;2.10;;;;;;;4.66;100.00;99325.69;5051394;28;20101;-70
2022/12/13 02:11:03;;;;;;;2.28;2.03;;;;;;;4.73;100.00;99314.69;5053118;28;20025;-70
2022/12/13 02:13:29;;;;;;;2.22;1.90;;;;;;;4.32;100.00;99270.00;5052563;28;20032;-70
2022/12/13 02:16:03;;;;;;;2.65;2.17;;;;;;;4.94;100.00;99368.91;5052686;28;20116;-69
2022/12/13 02:18:35;;;;;;;2.45;1.90;;;;;;;4.84;100.00;99377.44;5052757;28;20738;-70
2022/12/13 02:21:18;;;;;;;2.65;2.15;;;;;;;4.60;100.00;99368.56;5052626;28;20051;-70
2022/12/13 02:24:20;;;;;;;2.88;2.22;;;;;;;4.71;100.00;99386.88;5051099;28;20056;-71
2022/12/13 02:27:00;;;;;;;4.28;1.90;;;;;;;4.71;100.00;99396.94;5052891;28;20021;-70
2022/12/13 02:29:57;;;;;;;2.72;2.17;;;;;;;4.79;100.00;99395.16;5052471;28;20462;-70
2022/12/13 02:32:42;;;;;;;3.08;1.83;;;;;;;4.48;100.00;99363.69;5052609;28;20049;-70
2022/12/13 02:35:25;;;;;;;3.30;2.13;;;;;;;4.15;100.00;99316.34;5051525;28;20029;-70
2022/12/13 02:37:50;;;;;;;3.63;2.40;;;;;;;4.68;100.00;99407.03;5052605;28;20091;-71
2022/12/13 02:40:48;;;;;;;3.72;2.45;;;;;;;4.59;100.00;99399.63;5052717;28;20040;-70
2022/12/13 02:43:25;;;;;;;3.40;2.22;;;;;;;4.12;100.00;99334.81;5052044;28;20039;-71
2022/12/13 02:45:55;;;;;;;2.90;2.20;;;;;;;3.90;100.00;99325.88;5052392;28;20043;-70
2022/12/13 02:48:27;;;;;;;2.33;1.90;;;;;;;4.26;100.00;99428.53;5065593;28;20152;-70
2022/12/13 02:50:53;;;;;;;2.50;2.03;;;;;;;3.93;100.00;99362.72;5072062;28;20275;-71
2022/12/13 02:53:21;;;;;;;3.10;2.30;;;;;;;3.74;100.00;99392.28;5072279;28;20032;-69
2022/12/13 02:55:46;;;;;;;3.50;2.42;;;;;;;4.13;100.00;99457.22;5072204;28;20032;-70
2022/12/13 02:58:14;;;;;;;2.75;1.98;;;;;;;3.89;100.00;99452.44;5072103;28;20025;-71
2022/12/13 03:00:55;;;;;;;3.25;2.40;;;;;;;3.63;100.00;99418.31;5071944;28;20787;-71
2022/12/13 03:03:20;;;;;;;2.65;2.00;;;;;;;3.95;100.00;99491.75;5071641;28;20036;-70
2022/12/13 03:06:30;;;;;;;3.03;2.28;;;;;;;3.88;100.00;99485.94;5072176;28;20029;-70
2022/12/13 03:09:10;;;;;;;2.60;1.98;;;;;;;3.94;100.00;99485.06;5052792;28;20098;-70
2022/12/13 03:15:00;;;;;;;3.35;2.45;;;;;;;3.98;100.00;99505.13;5071950;28;20031;-70
2022/12/13 03:17:28;;;;;;;2.80;2.30;;;;;;;3.23;100.00;99433.72;5070054;28;20170;-70
2022/12/13 03:19:54;;;;;;;3.47;2.50;;;;;;;3.71;100.00;99512.06;5082806;28;20423;-70
2022/12/13 03:22:20;;;;;;;2.70;2.05;;;;;;;3.09;100.00;99402.88;5092098;28;20131;-70
2022/12/13 03:24:45;;;;;;;3.53;2.30;;;;;;;3.24;100.00;99415.34;5091886;28;20047;-70
2022/12/13 03:27:12;;;;;;;3.08;2.55;;;;;;;3.71;100.00;99517.94;5107193;28;20137;-70
2022/12/13 03:29:38;;;;;;;3.70;2.72;;;;;;;3.33;100.00;99482.22;5091958;28;20092;-70
2022/12/13 03:32:03;;;;;;;4.75;3.33;;;;;;;3.42;100.00;99522.34;5086111;28;20036;-70
2022/12/13 03:34:29;;;;;;;5.10;3.05;;;;;;;2.83;100.00;99424.84;5091862;28;20116;-70
2022/12/13 03:36:54;;;;;;;3.33;2.70;;;;;;;2.85;100.00;99423.16;5062791;28;20110;-70
2022/12/13 03:39:21;;;;;;;3.58;2.85;;;;;;;3.56;100.00;99539.84;5071758;28;20028;-70
2022/12/13 03:41:47;;;;;;;4.60;3.10;;;;;;;3.15;100.00;99473.13;5053276;28;20029;-70
2022/12/13 03:44:12;;;;;;;5.43;2.72;;;;;;;3.48;100.00;99525.66;5051799;28;20111;-70
2022/12/13 03:46:38;;;;;;;3.55;2.88;;;;;;;3.41;100.00;99539.09;5070437;28;20025;-70
2022/12/13 03:49:03;;;;;;;4.03;3.10;;;;;;;3.37;100.00;99541.63;5071058;28;20063;-72
2022/12/13 03:51:28;;;;;;;3.60;2.65;;;;;;;3.43;100.00;99542.44;5070957;28;20482;-69
2022/12/13 03:53:54;;;;;;;5.35;3.00;;;;;;;3.48;100.00;99557.47;5071135;28;20035;-70
2022/12/13 03:56:19;;;;;;;4.10;2.97;;;;;;;3.26;100.00;99514.09;5070552;28;20044;-69
2022/12/13 03:58:45;;;;;;;4.22;2.83;;;;;;;3.28;100.00;99529.13;5070876;28;20032;-70
2022/12/13 04:01:14;;;;;;;6.28;3.38;;;;;;;5.86;100.00;99519.47;5069291;28;20048;-71
2022/12/13 04:03:42;;;;;;;4.47;3.25;;;;;;;5.45;100.00;99394.97;5069968;28;20024;-71
2022/12/13 04:06:08;;;;;;;4.50;3.20;;;;;;;3.07;100.00;99486.59;5070782;28;20039;-70
2022/12/13 04:08:34;;;;;;;4.20;2.90;;;;;;;2.86;100.00;99511.78;5070784;28;20034;-70
2022/12/13 04:13:31;;;;;;;3.90;2.85;;;;;;;3.20;100.00;99574.38;5070546;28;20029;-70
2022/12/13 04:13:45;;;;;;;5.25;3.78;;;;;;;2.98;100.00;99531.81;5070541;28;20439;-70
2022/12/13 04:16:10;;;;;;;3.53;2.75;;;;;;;2.72;100.00;99488.44;5078294;28;20082;-75
2022/12/13 04:18:36;;;;;;;4.03;2.83;;;;;;;3.39;100.00;99591.00;5092087;28;20024;-75
2022/12/13 04:21:01;;;;;;;4.75;2.63;;;;;;;3.25;100.00;99585.22;5070681;28;20422;-71
2022/12/13 04:23:26;;;;;;;4.03;3.00;;;;;;;3.08;100.00;99587.00;5070551;28;20038;-73
2022/12/13 04:25:52;;;;;;;4.30;2.88;;;;;;;3.09;100.00;99558.53;5090563;28;20081;-73
2022/12/13 04:28:17;;;;;;;4.15;2.70;;;;;;;2.38;100.00;99477.69;5090645;28;20544;-73
2022/12/13 04:30:43;;;;;;;4.00;2.97;;;;;;;3.16;100.00;99547.63;5087011;28;20040;-73
2022/12/13 04:33:08;;;;;;;3.67;2.67;;;;;;;2.71;100.00;99500.16;5079289;28;20040;-75
2022/12/13 04:35:33;;;;;;;4.82;3.10;;;;;;;3.27;100.00;99583.53;5090785;28;20036;-72
2022/12/13 04:37:59;;;;;;;4.35;3.05;;;;;;;2.35;100.00;99457.66;5091273;28;20486;-71
2022/12/13 04:40:24;;;;;;;5.97;3.78;;;;;;;3.02;100.00;99602.09;5070880;28;20032;-73
2022/12/13 04:42:50;;;;;;;4.47;3.10;;;;;;;2.58;100.00;99504.38;5085783;28;20028;-74
2022/12/13 04:45:16;;;;;;;5.30;4.00;;;;;;;3.18;100.00;99607.88;5069726;28;20136;-73
2022/12/13 04:47:42;;;;;;;4.60;3.90;;;;;;;3.11;100.00;99601.22;5071481;28;20024;-76
2022/12/13 04:50:08;;;;;;;4.75;3.50;;;;;;;2.63;100.00;99511.91;5070608;28;20498;-74
2022/12/13 04:52:34;;;;;;;9.13;4.82;;;;;;;3.02;100.00;99594.56;5066668;28;20041;-76
2022/12/13 04:54:59;;;;;;;7.53;4.85;;;;;;;2.75;100.00;99513.53;5069288;28;20047;-74
2022/12/13 04:57:25;;;;;;;4.40;3.40;;;;;;;3.17;100.00;99632.13;5069276;28;20044;-72
2022/12/13 04:59:50;;;;;;;6.75;4.18;;;;;;;2.96;100.00;99606.28;5072236;28;20472;-73
2022/12/13 05:02:16;;;;;;;7.25;4.90;;;;;;;2.62;100.00;99550.34;5075494;28;20470;-72
2022/12/13 05:04:44;;;;;;;5.18;3.53;;;;;;;2.78;100.00;99588.78;5072756;28;20040;-75
2022/12/13 05:07:09;;;;;;;5.00;3.13;;;;;;;2.84;100.00;99639.78;5074705;28;20089;-74
2022/12/13 05:09:35;;;;;;;6.32;4.10;;;;;;;3.18;100.00;99663.13;5089751;28;20456;-75
2022/12/13 05:12:00;;;;;;;3.70;2.95;;;;;;;3.25;100.00;99655.53;5073919;28;20027;-75
2022/12/13 05:14:25;;;;;;;5.28;3.40;;;;;;;3.10;100.00;99660.63;5067084;28;20479;-74
2022/12/13 05:16:51;;;;;;;4.70;3.10;;;;;;;2.73;100.00;99578.78;5070155;28;20075;-71
2022/12/13 05:19:16;;;;;;;5.22;3.13;;;;;;;2.34;100.00;99514.50;5075661;28;20140;-73
2022/12/13 05:21:41;;;;;;;5.40;3.33;;;;;;;2.67;100.00;99588.00;5094537;28;20032;-74
2022/12/13 05:24:07;;;;;;;4.40;3.40;;;;;;;1.77;100.00;99465.34;5094324;28;20093;-73
2022/12/13 05:26:32;;;;;;;5.50;3.00;;;;;;;2.57;100.00;99557.06;5110113;28;20119;-70
2022/12/13 05:28:58;;;;;;;4.70;3.40;;;;;;;2.80;100.00;99592.97;5093482;28;20040;-67
2022/12/13 05:31:23;;;;;;;5.13;3.50;;;;;;;2.58;100.00;99569.59;5093981;28;20023;-70
2022/12/13 05:33:49;;;;;;;4.28;3.00;;;;;;;2.75;100.00;99618.91;5093122;28;20490;-70
2022/12/13 05:36:15;;;;;;;5.55;3.25;;;;;;;3.34;100.00;99654.69;5093457;28;20059;-70
2022/12/13 05:38:40;;;;;;;5.65;3.60;;;;;;;3.69;100.00;99659.50;5094023;28;20051;-73
2022/12/13 05:41:08;;;;;;;7.75;3.95;;;;;;;4.37;100.00;99628.03;5093762;28;20056;-68
2022/12/13 05:43:34;;;;;;;8.25;5.05;;;;;;;3.19;100.00;99675.66;5075438;28;20048;-70
2022/12/13 05:45:59;;;;;;;5.47;3.58;;;;;;;3.09;100.00;99684.06;5087844;28;20507;-70
2022/12/13 05:48:24;;;;;;;8.07;4.32;;;;;;;2.86;100.00;99642.28;5072229;28;20089;-69
2022/12/13 05:50:50;;;;;;;7.45;4.40;;;;;;;2.64;100.00;99601.38;5071909;28;20025;-69
2022/12/13 05:53:16;;;;;;;5.90;4.00;;;;;;;2.74;100.00;99632.28;5072300;28;20384;-70
2022/12/13 05:55:42;;;;;;;7.93;4.53;;;;;;;2.72;100.00;99634.78;5071792;28;20103;-70
2022/12/13 05:58:11;;;;;;;5.15;3.33;;;;;;;3.10;100.00;99708.34;5072451;28;20039;-70
2022/12/13 06:00:37;;;;;;;10.40;5.20;;;;;;;3.23;100.00;99727.53;5072571;28;20056;-70
2022/12/13 06:03:02;;;;;;;5.72;3.90;;;;;;;3.26;100.00;99717.50;5072311;28;20028;-69
2022/12/13 06:05:29;;;;;;;6.93;4.10;;;;;;;3.26;100.00;99730.06;5072392;28;20074;-70
2022/12/13 06:07:55;;;;;;;6.95;3.63;;;;;;;3.06;100.00;99709.19;5071542;28;20030;-71
2022/12/13 06:10:21;;;;;;;6.30;3.45;;;;;;;3.06;100.00;99736.81;5070940;28;20029;-70
2022/12/13 06:12:47;;;;;;;7.18;3.97;;;;;;;2.63;100.00;99645.69;5072329;28;20044;-70
2022/12/13 06:15:12;;;;;;;5.57;3.50;;;;;;;2.95;100.00;99697.50;5071699;28;20487;-69
2022/12/13 06:17:38;;;;;;;5.30;3.63;;;;;;;2.80;100.00;99674.91;5072307;28;20063;-69
2022/12/13 06:20:05;;;;;;;6.55;3.83;;;;;;;2.87;100.00;99687.47;5071498;28;20032;-69
2022/12/13 06:22:31;;;;;;;5.53;4.15;;;;;;;3.16;100.00;99751.00;5072565;28;20044;-69
2022/12/13 06:24:56;;;;;;;5.18;3.47;;;;;;;3.17;100.00;99780.28;5072333;28;20084;-70
2022/12/13 06:27:22;;;;;;;5.47;3.80;;;;;;;3.12;100.00;99756.88;5072631;28;20406;-69
2022/12/13 06:29:47;;;;;;;9.13;4.63;;;;;;;3.19;100.00;99780.31;5071234;28;20469;-70
2022/12/13 06:32:13;;;;;;;7.32;4.30;;;;;;;2.62;100.00;99701.72;5072525;28;20483;-69
2022/12/13 06:34:38;;;;;;;5.13;3.55;;;;;;;2.80;100.00;99673.25;5070595;28;20525;-69
2022/12/13 06:37:06;;;;;;;6.82;4.25;;;;;;;2.88;100.00;99696.66;5071755;28;20056;-70
2022/12/13 06:39:32;;;;;;;10.40;5.55;;;;;;;3.41;100.00;99800.34;5072205;28;20024;-70
2022/12/13 06:41:58;;;;;;;8.88;4.18;;;;;;;3.46;100.00;99793.66;5071763;28;20040;-70
2022/12/13 06:44:23;;;;;;;7.28;4.30;;;;;;;2.72;100.00;99711.72;5072474;28;20032;-70
2022/12/13 06:46:48;;;;;;;8.23;4.55;;;;;;;3.37;100.00;99787.78;5071910;28;20112;-70
2022/12/13 06:49:14;;;;;;;7.85;5.00;;;;;;;3.32;100.00;99790.31;5071941;28;20506;-70
2022/12/13 06:51:39;;;;;;;6.50;3.65;;;;;;;3.43;100.00;99808.72;5072421;28;20113;-70
2022/12/13 06:54:05;;;;;;;4.97;3.10;;;;;;;3.42;100.00;99804.53;5071889;28;20039;-70
2022/12/13 06:56:31;;;;;;;7.13;3.95;;;;;;;3.49;100.00;99802.81;5071941;28;20032;-70
2022/12/13 06:58:57;;;;;;;5.32;4.05;;;;;;;3.49;100.00;99831.31;5072648;28;20047;-69
2022/12/13 07:01:22;;;;;;;8.95;4.35;;;;;;;2.91;100.00;99743.53;5072076;28;20049;-70
2022/12/13 07:03:48;;;;;;;5.57;3.53;;;;;;;2.48;100.00;99695.88;5071885;28;20123;-70
2022/12/13 07:06:21;;;;;;;4.78;3.40;;;;;;;3.17;100.00;99810.41;5072124;28;20491;-70
2022/12/13 07:08:50;;;;;;;6.68;4.50;;;;;;;2.82;100.00;99761.94;5072041;28;20550;-71
2022/12/13 07:11:19;;;;;;;5.28;3.90;;;;;;;3.43;100.00;99843.88;5071694;28;20043;-70
2022/12/13 07:13:45;;;;;;;5.22;3.42;;;;;;;3.30;100.00;99801.19;5072031;28;20040;-70
2022/12/13 07:16:11;;;;;;;5.28;3.53;;;;;;;2.96;100.00;99757.72;5071777;28;20036;-69
2022/12/13 07:18:37;;;;;;;6.10;4.03;;;;;;;3.16;100.00;99793.69;5071754;28;20048;-70
2022/12/13 07:21:04;;;;;;;5.70;4.13;;;;;;;3.20;100.00;99814.59;5069935;28;20074;-70
2022/12/13 07:23:29;;;;;;;4.60;3.53;;;;;;;3.47;100.00;99870.66;5070120;28;20056;-70
2022/12/13 07:25:55;;;;;;;6.55;4.30;;;;;;;3.06;100.00;99771.94;5071503;28;20060;-70
2022/12/13 07:28:21;;;;;;;6.30;4.50;;;;;;;3.10;100.00;99772.78;5071339;28;20078;-70
2022/12/13 07:30:47;;;;;;;9.77;4.65;;;;;;;3.55;100.00;99850.53;5071662;28;20024;-70
2022/12/13 07:33:12;;;;;;;7.65;4.75;;;;;;;3.06;100.00;99786.16;5071169;28;20510;-70
2022/12/13 07:35:38;;;;;;;7.18;4.57;;;;;;;3.56;100.00;99834.66;5071217;28;20029;-71
2022/12/13 07:38:05;;;;;;;8.82;5.30;;;;;;;3.37;100.00;99813.75;5070980;28;20105;-70
2022/12/13 07:40:33;;;;;;;12.85;6.43;;;;;;;3.59;100.00;99889.91;5071644;28;20053;-71
2022/12/13 07:42:58;;;;;;;9.48;5.28;;;;;;;3.03;100.00;99748.53;5069482;28;20028;-70
2022/12/13 07:45:24;;;;;;;15.55;7.35;;;;;;;3.47;100.00;99830.47;5069410;28;20043;-70
2022/12/13 07:47:50;;;;;;;13.50;6.70;;;;;;;3.79;100.00;99920.88;5069679;28;20503;-70
2022/12/13 07:50:15;;;;;;;6.57;4.53;;;;;;;3.89;100.00;99914.16;5069798;28;20051;-70
2022/12/13 07:52:41;;;;;;;7.30;4.80;;;;;;;3.87;100.00;99934.28;5070890;28;20028;-70
2022/12/13 07:55:07;;;;;;;7.72;5.38;;;;;;;3.60;100.00;99851.41;5071084;28;20075;-70
2022/12/13 07:57:33;;;;;;;10.27;6.72;;;;;;;4.15;100.00;99940.06;5070976;28;20036;-70
2022/12/13 07:59:59;;;;;;;7.10;4.68;;;;;;;4.12;100.00;99943.41;5070901;28;20035;-70
2022/12/13 08:02:25;;;;;;;8.95;4.88;;;;;;;3.17;100.00;99795.34;5071091;28;20028;-70
2022/12/13 08:04:51;;;;;;;8.63;5.18;;;;;;;3.44;100.00;99790.28;5070431;28;20056;-70
2022/12/13 08:07:16;;;;;;;9.65;5.93;;;;;;;3.82;100.00;99854.69;5070539;28;20466;-70
2022/12/13 08:09:42;;;;;;;12.60;7.47;;;;;;;4.20;100.00;99948.41;5069126;28;20127;-70
2022/12/13 08:12:07;;;;;;;22.45;12.35;;;;;;;4.14;100.00;99939.22;5070493;28;20119;-71
2022/12/13 08:14:33;;;;;;;7.47;5.10;;;;;;;4.14;100.00;99969.41;5070747;28;20391;-70
2022/12/13 08:16:59;;;;;;;8.27;5.22;;;;;;;3.74;100.00;99894.09;5070609;28;20063;-71
2022/12/13 08:19:24;;;;;;;6.53;4.50;;;;;;;4.26;100.00;99963.50;5070997;28;20115;-71
2022/12/13 08:21:52;;;;;;;18.10;10.57;;;;;;;4.14;100.00;99944.25;5070211;28;20421;-70
2022/12/13 08:24:18;;;;;;;11.52;6.78;;;;;;;4.27;100.00;99950.94;5071249;28;20486;-70
2022/12/13 08:26:44;;;;;;;8.65;5.88;;;;;;;3.37;100.00;99811.22;5071251;28;20050;-71
2022/12/13 08:29:14;;;;;;;4.63;3.92;;;;;;;3.93;100.00;99891.50;5069689;28;20039;-71
2022/12/13 08:31:39;;;;;;;5.97;4.38;;;;;;;4.05;100.00;99878.06;5071086;28;20032;-71
2022/12/13 08:34:05;;;;;;;10.40;5.32;;;;;;;3.99;100.00;99866.34;5068380;28;20078;-70
2022/12/13 08:36:30;;;;;;;6.93;4.97;;;;;;;3.81;100.00;99841.28;5070411;28;20475;-70
2022/12/13 08:38:57;;;;;;;13.93;8.60;;;;;;;4.19;100.00;99894.78;5070224;28;20032;-70
2022/12/13 08:41:23;;;;;;;6.00;4.28;;;;;;;4.83;100.00;99962.44;5070122;28;20052;-70
2022/12/13 08:43:49;;;;;;;6.75;5.07;;;;;;;4.79;100.00;99950.72;5070468;28;20035;-70
2022/12/13 08:46:14;;;;;;;8.77;5.72;;;;;;;4.78;100.00;99942.31;5070666;28;20033;-69
2022/12/13 08:48:40;;;;;;;10.15;6.22;;;;;;;4.38;100.00;99863.66;5070271;28;20392;-70
2022/12/13 08:51:08;;;;;;;10.88;5.95;;;;;;;4.18;100.00;99872.16;5070026;28;20024;-71
2022/12/13 08:53:34;;;;;;;8.07;5.65;;;;;;;4.03;100.00;99817.72;5070622;28;20074;-70
2022/12/13 08:56:00;;;;;;;9.63;5.95;;;;;;;4.82;100.00;99930.53;5070676;28;20032;-71
2022/12/13 08:58:26;;;;;;;13.85;7.63;;;;;;;4.59;100.00;99892.94;5069775;28;20074;-70
2022/12/13 09:00:51;;;;;;;9.52;5.75;;;;;;;4.96;100.00;99959.00;5070504;28;20606;-71
2022/12/13 09:03:16;;;;;;;17.27;8.60;;;;;;;5.05;100.00;99952.22;5070601;28;20478;-70
2022/12/13 09:05:42;;;;;;;7.03;4.30;;;;;;;4.76;100.00;99870.16;5070082;28;20035;-70
2022/12/13 09:08:07;;;;;;;13.88;7.85;;;;;;;4.91;100.00;99902.81;5070382;28;20033;-70
2022/12/13 09:10:33;;;;;;;8.38;5.40;;;;;;;5.07;100.00;99917.78;5069072;28;20029;-70
2022/12/13 09:12:59;;;;;;;7.25;4.45;;;;;;;5.06;100.00;99932.91;5068901;28;20183;-70
2022/12/13 09:15:26;;;;;;;19.45;8.23;;;;;;;5.08;100.00;99944.66;5069928;28;20021;-70
2022/12/13 09:17:52;;;;;;;8.35;5.35;;;;;;;4.67;100.00;99875.25;5070272;28;20062;-70
2022/12/13 09:20:17;;;;;;;9.15;5.20;;;;;;;4.87;100.00;99941.44;5070086;28;20131;-70
2022/12/13 09:22:43;;;;;;;6.30;4.45;;;;;;;4.98;100.00;99920.38;5070096;28;20475;-70
2022/12/13 09:25:08;;;;;;;7.43;4.43;;;;;;;4.61;100.00;99858.50;5069921;28;20085;-70
2022/12/13 09:27:34;;;;;;;7.43;4.70;;;;;;;4.54;100.00;99869.44;5069945;28;20479;-70
2022/12/13 09:30:01;;;;;;;7.90;5.18;;;;;;;5.17;100.00;99934.50;5069641;28;20287;-70
2022/12/13 09:32:27;;;;;;;7.22;4.57;;;;;;;5.13;100.00;99921.97;5068421;28;20021;-70
2022/12/13 09:34:53;;;;;;;5.95;4.10;;;;;;;4.40;100.00;99834.28;5068138;28;20033;-71
2022/12/13 09:37:18;;;;;;;8.57;4.78;;;;;;;4.96;100.00;99936.34;5069778;28;20021;-70
2022/12/13 09:39:46;;;;;;;5.80;4.25;;;;;;;4.78;100.00;99881.88;5069506;28;20032;-70
2022/12/13 09:42:21;;;;;;;7.78;4.78;;;;;;;5.16;100.00;99920.25;5069746;28;20024;-69
2022/12/13 09:44:53;;;;;;;19.13;9.05;;;;;;;5.19;100.00;99937.84;5070727;28;20024;-70
2022/12/13 09:47:24;;;;;;;17.00;7.72;;;;;;;5.20;100.00;99939.53;5071408;28;20033;-70
2022/12/13 09:49:50;;;;;;;15.02;8.02;;;;;;;5.04;100.00;99927.91;5073246;28;20127;-70
2022/12/13 09:52:17;;;;;;;27.67;13.30;;;;;;;5.03;100.00;99928.72;5073267;28;20509;-70
2022/12/13 09:54:43;;;;;;;10.02;6.28;;;;;;;5.38;100.00;99927.63;5073595;28;20035;-69
2022/12/13 09:57:26;;;;;;;17.10;9.40;;;;;;;4.69;100.00;99831.63;5073236;28;20384;-70
2022/12/13 09:59:51;;;;;;;9.00;6.47;;;;;;;5.17;100.00;99914.34;5072844;28;20503;-70
2022/12/13 10:02:21;;;;;;;7.82;4.18;;;;;;;5.09;100.00;99903.50;5072945;28;20059;-71
2022/12/13 10:04:46;;;;;;;12.63;6.50;;;;;;;5.21;100.00;99900.03;5073343;28;20025;-70
2022/12/13 10:07:20;;;;;;;9.15;4.93;;;;;;;5.04;100.00;99895.16;5073127;28;20027;-70
2022/12/13 10:09:46;;;;;;;9.90;5.70;;;;;;;5.33;100.00;99894.09;5071602;28;20032;-70
2022/12/13 10:12:15;;;;;;;11.02;5.63;;;;;;;4.29;100.00;99755.53;5072515;28;20060;-70
2022/12/13 10:14:53;;;;;;;9.73;6.28;;;;;;;5.26;100.00;99906.75;5064601;28;20625;-73
2022/12/13 10:17:22;;;;;;;11.82;6.47;;;;;;;5.65;100.00;99903.03;4711481;28;10000432;-76
2022/12/13 10:19:50;;;;;;;9.48;7.30;;;;;;;5.17;100.00;99808.53;5069660;28;20434;-76
2022/12/13 10:22:18;;;;;;;10.55;6.63;;;;;;;5.64;100.00;99901.38;5070593;28;20029;-76
2022/12/13 10:25:02;;;;;;;8.98;6.60;;;;;;;5.67;100.00;99814.75;5064385;28;20092;-74
2022/12/13 10:27:39;;;;;;;7.05;5.13;;;;;;;5.51;100.00;99835.94;5070658;28;20025;-76
2022/12/13 10:30:06;;;;;;;5.90;4.07;;;;;;;5.77;100.00;99902.91;5069498;28;20043;-74
2022/12/13 10:32:41;;;;;;;7.22;5.05;;;;;;;5.72;100.00;99896.25;5070713;28;20067;-74
2022/12/13 10:35:22;;;;;;;6.38;4.38;;;;;;;5.71;100.00;99900.44;5071327;28;20066;-78
2022/12/13 10:37:47;;;;;;;10.05;6.00;;;;;;;5.69;100.00;99886.16;5069685;28;20032;-75
2022/12/13 10:40:33;;;;;;;8.40;6.38;;;;;;;5.94;100.00;99883.41;5065584;28;20055;-76
2022/12/13 10:43:11;;;;;;;9.30;5.20;;;;;;;6.08;100.00;99885.81;5064056;28;20039;-77
2022/12/13 10:45:37;;;;;;;6.88;5.18;;;;;;;5.66;100.00;99823.19;5066479;28;20044;-73
2022/12/13 10:48:03;;;;;;;13.05;6.10;;;;;;;7.12;100.00;99835.50;5073106;28;20036;-72
2022/12/13 10:50:29;;;;;;;8.85;5.88;;;;;;;5.14;100.00;99722.09;5072379;28;20079;-71
2022/12/13 10:52:57;;;;;;;8.77;6.28;;;;;;;5.97;100.00;99811.91;5072194;28;20033;-73
2022/12/13 10:55:32;;;;;;;10.70;7.38;;;;;;;5.62;100.00;99802.22;5071853;28;20059;-71
2022/12/13 10:58:06;;;;;;;10.80;7.30;;;;;;;6.74;100.00;99881.56;5072090;28;20237;-72
2022/12/13 11:00:46;;;;;;;10.02;4.90;;;;;;;6.06;100.00;99875.72;5071256;28;20049;-71
2022/12/13 11:03:32;;;;;;;8.93;4.82;;;;;;;6.16;100.00;99884.00;5073159;28;20024;-73
2022/12/13 11:06:19;;;;;;;6.53;4.82;;;;;;;5.63;100.00;99755.13;5072514;28;20017;-74
2022/12/13 11:08:44;;;;;;;8.10;5.60;;;;;;;6.37;100.00;99871.13;5072301;28;20550;-73
2022/12/13 11:11:13;;;;;;;8.25;5.88;;;;;;;5.79;100.00;99794.44;5071868;28;20515;-73
2022/12/13 11:13:46;;;;;;;9.32;4.97;;;;;;;6.22;100.00;99888.97;5072474;28;20051;-70
2022/12/13 11:16:20;;;;;;;6.18;3.50;;;;;;;5.93;100.00;99843.91;5072417;28;20506;-73
2022/12/13 11:18:51;;;;;;;8.48;5.53;;;;;;;5.64;100.00;99810.59;5072791;28;20042;-73
2022/12/13 11:21:24;;;;;;;7.10;5.07;;;;;;;6.27;100.00;99873.78;5072595;28;20092;-72
2022/12/13 11:23:49;;;;;;;6.40;4.30;;;;;;;5.63;100.00;99780.34;5088250;28;20063;-72
2022/12/13 11:26:21;;;;;;;6.50;5.10;;;;;;;6.22;100.00;99873.84;5072622;28;20111;-71
2022/12/13 11:28:52;;;;;;;5.05;4.00;;;;;;;6.27;100.00;99884.72;5071162;28;20032;-71
2022/12/13 11:31:50;;;;;;;5.25;3.88;;;;;;;5.89;100.00;99891.88;5071525;28;20058;-71
2022/12/13 11:34:32;;;;;;;6.47;4.35;;;;;;;6.19;100.00;99885.66;5067810;28;20068;-71
2022/12/13 11:37:32;;;;;;;9.20;5.07;;;;;;;6.60;100.00;99885.97;5071549;28;20116;-72
2022/12/13 11:40:21;;;;;;;5.22;3.90;;;;;;;6.35;100.00;99864.44;5071615;28;20032;-73